Seattle, Washington
Traffic Map
Current Weather Conditions
Seattle, Washington
Overcast Heavy Rain
Overcast
15°
Feels Like: 15°
Wind Chill: 15° Ceiling: 2100
Heat Index: 15° Visibility: 2.5mi
Dew Point: 12° Wind: 6mph
Humidity: 82% Direction: 360° (N)
Pressure: 29.88in Gusts: 0mph
Raw Report DataKBFI 030433Z 36005KT 2 1/2SM +RA OVC021 15/12 A2988 RMK AO2 VIS 1 3/4V4 RAB14 PNO $
Traffic Incident Summary
Active as of:
Severity:
Category:
InformationThere was an issue retrieving the traffic information for this location. Please try a different location or try again shortly.
Advertisements
Track Severe Weather on mobile